createdAt,value
2017-08-12T05:31:36.514Z,14.62
2017-08-12T05:32:01.975Z,14.48
2017-08-12T05:32:27.428Z,14.53
2017-08-12T05:32:52.888Z,14.62
2017-08-12T05:33:18.362Z,14.54
2017-08-12T05:33:43.852Z,14.58
2017-08-12T05:34:09.330Z,14.5
2017-08-12T05:34:34.787Z,14.53
2017-08-12T05:35:00.251Z,14.55
2017-08-12T05:35:25.790Z,14.45
2017-08-12T05:35:51.267Z,14.55
2017-08-12T05:36:16.717Z,14.48
2017-08-12T05:36:42.184Z,14.48
2017-08-12T05:37:07.665Z,14.45
2017-08-12T05:37:33.167Z,14.5
2017-08-12T05:37:58.731Z,14.51
2017-08-12T05:38:24.149Z,14.5
2017-08-12T05:38:49.611Z,14.51
2017-08-12T05:39:15.122Z,14.51
2017-08-12T05:39:40.615Z,14.5
2017-08-12T05:40:06.101Z,14.58
2017-08-12T05:41:14.836Z,14.5
2017-08-12T05:41:40.309Z,14.48
2017-08-12T05:42:05.847Z,14.5
2017-08-12T05:42:31.302Z,14.63
2017-08-12T05:42:56.769Z,14.59
2017-08-12T05:43:22.265Z,14.5
2017-08-12T05:43:47.765Z,14.5
2017-08-12T05:44:13.178Z,14.55
2017-08-12T05:44:38.633Z,14.45
2017-08-12T05:45:04.124Z,14.62
2017-08-12T05:45:29.643Z,14.5
2017-08-12T05:45:55.098Z,14.48
2017-08-12T05:46:20.615Z,14.47
2017-08-12T05:46:46.104Z,14.47
2017-08-12T05:47:11.596Z,14.54
2017-08-12T05:47:37.065Z,14.54
2017-08-12T05:48:02.553Z,14.48
2017-08-12T05:48:28.045Z,14.5
2017-08-12T05:48:53.515Z,14.53
2017-08-12T05:49:19.013Z,14.51
2017-08-12T05:49:44.512Z,14.5
2017-08-12T05:50:09.978Z,14.47
2017-08-12T05:50:35.444Z,14.5
2017-08-12T05:51:00.949Z,14.59
2017-08-12T05:51:59.445Z,14.5
2017-08-12T05:52:24.906Z,14.48
2017-08-12T05:52:50.339Z,14.58
2017-08-12T05:53:15.798Z,14.59
2017-08-12T05:53:41.296Z,14.5
2017-08-12T05:54:06.808Z,14.48
2017-08-12T05:54:32.252Z,14.45
2017-08-12T05:54:57.737Z,14.58
2017-08-12T05:55:23.243Z,14.53
2017-08-12T05:55:48.758Z,14.63
2017-08-12T05:56:14.228Z,14.58
2017-08-12T05:56:39.685Z,14.63
2017-08-12T05:57:05.157Z,14.62
2017-08-12T05:57:30.696Z,14.54
2017-08-12T05:57:56.146Z,14.58
2017-08-12T05:58:21.622Z,14.6
2017-08-12T05:58:47.067Z,14.65
2017-08-12T05:59:12.559Z,14.63
2017-08-12T05:59:38.059Z,14.58
2017-08-12T06:00:03.543Z,14.63
2017-08-12T06:00:29.016Z,14.63
2017-08-12T06:00:54.453Z,14.55
2017-08-12T06:01:20.001Z,14.6
2017-08-12T06:01:45.456Z,14.62
2017-08-12T06:02:10.934Z,14.68
2017-08-12T06:02:36.404Z,14.55
2017-08-12T06:03:01.885Z,14.63
2017-08-12T06:04:05.489Z,14.66
2017-08-12T06:04:30.980Z,14.69
2017-08-12T06:04:56.416Z,14.66
2017-08-12T06:05:21.876Z,14.69
2017-08-12T06:05:47.377Z,14.69
2017-08-12T06:06:12.836Z,14.66
2017-08-12T06:06:38.308Z,14.63
2017-08-12T06:07:03.794Z,14.66
2017-08-12T06:07:29.304Z,14.6
2017-08-12T06:07:54.787Z,14.7
2017-08-12T06:08:20.266Z,14.63
2017-08-12T06:08:45.728Z,14.62
2017-08-12T06:09:11.209Z,14.78
2017-08-12T06:09:36.698Z,14.65
2017-08-12T06:10:02.168Z,14.7
2017-08-12T06:10:27.695Z,14.7
2017-08-12T06:10:53.203Z,14.7
2017-08-12T06:11:18.681Z,14.6
2017-08-12T06:11:44.165Z,14.69
2017-08-12T06:12:09.674Z,14.66
2017-08-12T06:12:35.148Z,14.73
2017-08-12T06:13:00.640Z,14.65
2017-08-12T06:13:26.109Z,14.68
2017-08-12T06:13:51.647Z,14.69
2017-08-12T06:14:17.131Z,14.66
2017-08-12T06:14:42.638Z,14.6
2017-08-12T06:15:08.104Z,14.73
2017-08-12T06:15:33.609Z,14.69
2017-08-12T06:15:59.080Z,14.59
2017-08-12T06:16:24.557Z,14.6
2017-08-12T06:16:50.015Z,14.68
2017-08-12T06:17:15.467Z,14.6
2017-08-12T06:17:40.954Z,14.62
2017-08-12T06:18:06.432Z,14.59
2017-08-12T06:18:31.903Z,14.58
2017-08-12T06:18:57.391Z,14.65
2017-08-12T06:19:22.906Z,14.55
2017-08-12T06:19:48.386Z,14.66
2017-08-12T06:20:13.839Z,14.65
2017-08-12T06:20:39.318Z,14.68
2017-08-12T06:21:04.797Z,14.63
2017-08-12T06:21:30.265Z,14.66
2017-08-12T06:21:55.732Z,14.59
2017-08-12T06:22:21.204Z,14.55
2017-08-12T06:22:46.646Z,14.59
2017-08-12T06:23:12.165Z,14.59
2017-08-12T06:23:37.567Z,14.59
2017-08-12T06:24:03.113Z,14.53
2017-08-12T06:24:28.559Z,14.6
2017-08-12T06:24:54.029Z,14.62
2017-08-12T06:25:19.497Z,14.6
2017-08-12T06:25:44.966Z,14.6
2017-08-12T06:26:10.380Z,14.54
2017-08-12T06:26:35.857Z,14.55
2017-08-12T06:27:01.306Z,14.62
2017-08-12T06:27:26.805Z,14.51
2017-08-12T06:27:52.257Z,14.54
2017-08-12T06:29:00.959Z,14.55
2017-08-12T06:29:26.420Z,14.51
2017-08-12T06:29:51.903Z,14.47
2017-08-12T06:30:17.394Z,14.51
2017-08-12T06:30:42.847Z,14.47
2017-08-12T06:31:08.311Z,14.51
2017-08-12T06:31:33.832Z,14.53
2017-08-12T06:31:59.344Z,14.53
2017-08-12T06:32:24.755Z,14.51
2017-08-12T06:32:50.248Z,14.58
2017-08-12T06:33:15.714Z,14.5
2017-08-12T06:33:41.227Z,14.48
2017-08-12T06:34:06.651Z,14.45
2017-08-12T06:34:32.190Z,14.48
2017-08-12T06:34:57.702Z,14.51
2017-08-12T06:35:23.187Z,14.48
2017-08-12T06:35:48.646Z,14.48
2017-08-12T06:36:14.137Z,14.45
2017-08-12T06:36:39.591Z,14.47
2017-08-12T06:37:05.101Z,14.48
2017-08-12T06:37:30.621Z,14.47
2017-08-12T06:37:56.092Z,14.53
2017-08-12T06:38:21.555Z,14.5
2017-08-12T06:38:47.052Z,14.5
2017-08-12T06:39:12.568Z,14.43
2017-08-12T06:39:38.039Z,14.44
2017-08-12T06:40:03.498Z,14.45
2017-08-12T06:40:29.013Z,14.45
2017-08-12T06:40:54.483Z,14.41
2017-08-12T06:41:19.972Z,14.47
2017-08-12T06:41:45.469Z,14.47
2017-08-12T06:42:10.950Z,14.43
2017-08-12T06:42:36.463Z,14.45
2017-08-12T06:43:01.905Z,14.45
2017-08-12T06:43:27.358Z,14.48
2017-08-12T06:43:52.848Z,14.45
2017-08-12T06:44:18.290Z,14.48
2017-08-12T06:44:43.870Z,14.45
2017-08-12T06:45:09.327Z,14.45
2017-08-12T06:45:34.798Z,14.43
2017-08-12T06:46:00.281Z,14.5
2017-08-12T06:46:25.738Z,14.47
2017-08-12T06:46:51.265Z,14.45
2017-08-12T06:47:16.763Z,14.44
2017-08-12T06:47:42.269Z,14.5
2017-08-12T06:48:07.730Z,14.45
2017-08-12T06:48:33.204Z,14.5
2017-08-12T06:48:58.705Z,14.45
2017-08-12T06:49:24.231Z,14.47
2017-08-12T06:49:49.676Z,14.48
2017-08-12T06:50:15.165Z,14.48
2017-08-12T06:50:40.672Z,14.47
2017-08-12T06:51:06.153Z,14.47
2017-08-12T06:51:31.688Z,14.5
2017-08-12T06:51:57.208Z,14.36
2017-08-12T06:52:22.661Z,14.37
2017-08-12T06:52:48.130Z,14.44
2017-08-12T06:53:13.599Z,14.47
2017-08-12T06:53:39.088Z,14.44
2017-08-12T06:54:04.521Z,14.36
2017-08-12T06:54:30.019Z,14.44
2017-08-12T06:54:55.472Z,14.5
2017-08-12T06:55:20.967Z,14.41
2017-08-12T06:55:46.549Z,14.43
2017-08-12T06:56:12.019Z,14.51
2017-08-12T06:56:37.542Z,14.47
2017-08-12T06:57:03.010Z,14.48
2017-08-12T06:57:28.484Z,14.45
2017-08-12T06:57:53.943Z,14.45
2017-08-12T06:58:19.441Z,14.47
2017-08-12T06:58:44.933Z,14.47
2017-08-12T06:59:10.409Z,14.47
2017-08-12T06:59:35.887Z,14.47
2017-08-12T07:00:01.394Z,14.47
2017-08-12T07:00:26.879Z,14.5
2017-08-12T07:00:52.323Z,14.53
2017-08-12T07:01:17.797Z,14.45
2017-08-12T07:01:43.293Z,14.5
2017-08-12T07:02:08.801Z,14.54
2017-08-12T07:02:34.301Z,14.48
2017-08-12T07:02:59.773Z,14.48
2017-08-12T07:03:25.216Z,14.5
2017-08-12T07:03:50.667Z,14.54
2017-08-12T07:04:16.157Z,14.53
2017-08-12T07:04:41.656Z,14.48
2017-08-12T07:05:07.101Z,14.48
2017-08-12T07:05:32.571Z,14.58
2017-08-12T07:05:58.049Z,14.51
2017-08-12T07:06:23.576Z,14.47
2017-08-12T07:06:49.032Z,14.51
2017-08-12T07:07:14.479Z,14.48
2017-08-12T07:07:40.000Z,14.48
2017-08-12T07:08:05.465Z,14.48
2017-08-12T07:08:30.970Z,14.53
2017-08-12T07:08:56.425Z,14.48
2017-08-12T07:09:21.920Z,14.47
2017-08-12T07:09:47.382Z,14.5
2017-08-12T07:10:12.878Z,14.47
2017-08-12T07:10:38.340Z,14.5
2017-08-12T07:11:03.837Z,14.51
2017-08-12T07:11:29.340Z,14.5
2017-08-12T07:11:54.811Z,14.51
2017-08-12T07:12:20.295Z,14.47
2017-08-12T07:12:45.756Z,14.51
2017-08-12T07:13:11.233Z,14.48
2017-08-12T07:13:36.741Z,14.47
2017-08-12T07:14:02.286Z,14.47
2017-08-12T07:14:27.771Z,14.47
2017-08-12T07:14:53.213Z,14.45
2017-08-12T07:15:18.710Z,14.45
2017-08-12T07:15:44.187Z,14.5
2017-08-12T07:16:09.682Z,14.58
2017-08-12T07:16:35.152Z,14.5
2017-08-12T07:17:00.636Z,14.5
2017-08-12T07:17:26.145Z,14.53
2017-08-12T07:17:51.603Z,14.55
2017-08-12T07:18:17.074Z,14.51
2017-08-12T07:18:42.568Z,14.45
2017-08-12T07:19:08.036Z,14.54
2017-08-12T07:19:33.541Z,14.51
2017-08-12T07:19:59.044Z,14.48
2017-08-12T07:20:24.523Z,14.51
2017-08-12T07:20:50.009Z,14.48
2017-08-12T07:21:15.484Z,14.47
2017-08-12T07:21:40.984Z,14.5
2017-08-12T07:22:06.497Z,14.48
2017-08-12T07:22:32.021Z,14.5
2017-08-12T07:22:57.508Z,14.47
2017-08-12T07:23:22.953Z,14.53
2017-08-12T07:23:48.428Z,14.48
2017-08-12T07:24:13.987Z,14.59
2017-08-12T07:24:39.503Z,14.59
2017-08-12T07:25:05.027Z,14.54
2017-08-12T07:25:30.554Z,14.58
2017-08-12T07:25:55.979Z,14.6
2017-08-12T07:26:21.505Z,14.58
2017-08-12T07:26:46.976Z,14.59
2017-08-12T07:27:12.488Z,14.6
2017-08-12T07:27:38.003Z,14.58
2017-08-12T07:28:03.461Z,14.59
2017-08-12T07:28:28.971Z,14.54
2017-08-12T07:28:54.457Z,14.63
2017-08-12T07:29:19.947Z,14.59
2017-08-12T07:29:45.420Z,14.58
2017-08-12T07:30:10.864Z,14.62
2017-08-12T07:30:36.339Z,14.55
2017-08-12T07:31:01.818Z,14.53
2017-08-12T07:31:27.374Z,14.55
2017-08-12T07:31:52.841Z,14.58
2017-08-12T07:32:18.333Z,14.62
2017-08-12T07:32:43.838Z,14.59
2017-08-12T07:33:09.349Z,14.63
2017-08-12T07:33:34.825Z,14.62
2017-08-12T07:34:00.324Z,14.63
2017-08-12T07:34:25.832Z,14.58
2017-08-12T07:34:51.377Z,14.59
2017-08-12T07:35:16.826Z,14.59
2017-08-12T07:35:42.278Z,14.55
2017-08-12T07:36:07.699Z,14.59
2017-08-12T07:36:33.216Z,14.65
2017-08-12T07:36:58.693Z,14.58
2017-08-12T07:37:24.167Z,14.69
2017-08-12T07:38:18.219Z,14.59
2017-08-12T07:38:43.695Z,14.58
2017-08-12T07:39:09.166Z,14.59
2017-08-12T07:39:34.694Z,14.55
2017-08-12T07:40:00.149Z,14.53
2017-08-12T07:40:25.624Z,14.53
2017-08-12T07:40:51.061Z,14.55
2017-08-12T07:41:16.519Z,14.55
2017-08-12T07:41:41.965Z,14.6
2017-08-12T07:42:07.396Z,14.51
2017-08-12T07:42:32.968Z,14.58
2017-08-12T07:42:58.493Z,14.6
2017-08-12T07:43:24.004Z,14.48
2017-08-12T07:43:49.397Z,14.58
2017-08-12T07:44:14.863Z,14.62
2017-08-12T07:44:40.322Z,14.48
2017-08-12T07:45:05.800Z,14.62
2017-08-12T07:45:31.239Z,14.5
2017-08-12T07:46:40.020Z,14.6
2017-08-12T07:47:05.475Z,14.58
2017-08-12T07:47:30.952Z,14.68
2017-08-12T07:47:56.428Z,14.58
2017-08-12T07:48:21.905Z,14.63
2017-08-12T07:48:47.365Z,14.65
2017-08-12T07:49:12.750Z,14.54
2017-08-12T07:49:38.230Z,14.54
2017-08-12T07:50:03.761Z,14.59
2017-08-12T07:50:29.242Z,14.6
2017-08-12T07:50:54.708Z,14.62
2017-08-12T07:51:20.175Z,14.59
2017-08-12T07:51:45.755Z,14.59
2017-08-12T07:52:11.171Z,14.6
2017-08-12T07:52:36.609Z,14.58
2017-08-12T07:53:02.062Z,14.6
2017-08-12T07:53:27.530Z,14.6
2017-08-12T07:53:52.991Z,14.68
2017-08-12T07:54:18.521Z,14.63
2017-08-12T07:54:43.985Z,14.59
2017-08-12T07:55:09.455Z,14.6
2017-08-12T07:55:34.951Z,14.6
2017-08-12T07:56:00.418Z,14.55
2017-08-12T07:56:25.916Z,14.59
2017-08-12T07:56:51.420Z,14.6
2017-08-12T07:57:16.886Z,14.6
2017-08-12T07:57:42.353Z,14.6
2017-08-12T07:58:07.792Z,14.54
2017-08-12T07:58:33.345Z,14.59
2017-08-12T07:58:58.829Z,14.59
2017-08-12T07:59:24.301Z,14.58
2017-08-12T07:59:49.804Z,14.59
2017-08-12T08:00:15.278Z,14.55
2017-08-12T08:00:40.763Z,14.59
2017-08-12T08:01:06.229Z,14.59
2017-08-12T08:01:31.730Z,14.59
2017-08-12T08:01:57.231Z,14.58
2017-08-12T08:02:22.724Z,14.62
2017-08-12T08:02:48.223Z,14.59
2017-08-12T08:03:13.674Z,14.65
2017-08-12T08:03:39.214Z,14.65
2017-08-12T08:04:04.639Z,14.63
2017-08-12T08:04:30.150Z,14.55
2017-08-12T08:04:55.655Z,14.66
2017-08-12T08:05:21.194Z,14.63
2017-08-12T08:05:46.744Z,14.68
2017-08-12T08:06:12.254Z,14.65
2017-08-12T08:06:37.763Z,14.62
2017-08-12T08:07:03.266Z,14.58
2017-08-12T08:07:28.748Z,14.7
2017-08-12T08:07:54.233Z,14.68
2017-08-12T08:08:19.698Z,14.7
2017-08-12T08:08:45.190Z,14.59
2017-08-12T08:09:10.625Z,14.58
2017-08-12T08:09:36.075Z,14.7
2017-08-12T08:10:01.599Z,14.69
2017-08-12T08:10:27.126Z,14.72
2017-08-12T08:10:52.580Z,14.7
2017-08-12T08:11:18.016Z,14.79
2017-08-12T08:11:43.520Z,14.68
2017-08-12T08:12:08.974Z,14.79
2017-08-12T08:12:34.494Z,14.78
2017-08-12T08:12:59.975Z,14.73
2017-08-12T08:13:25.476Z,14.72
2017-08-12T08:13:50.950Z,14.68
2017-08-12T08:14:16.358Z,14.68
2017-08-12T08:14:41.803Z,14.77
2017-08-12T08:15:07.260Z,14.73
2017-08-12T08:15:32.727Z,14.81
2017-08-12T08:15:58.156Z,14.68
2017-08-12T08:16:23.637Z,14.79
2017-08-12T08:16:49.235Z,14.7
2017-08-12T08:17:14.558Z,14.72
2017-08-12T08:17:40.039Z,14.84
2017-08-12T08:18:05.539Z,14.82
2017-08-12T08:18:31.017Z,14.82
2017-08-12T08:18:56.506Z,14.78
2017-08-12T08:19:22.028Z,14.78
2017-08-12T08:19:47.538Z,14.79
2017-08-12T08:20:13.037Z,14.82
2017-08-12T08:20:38.507Z,14.73
2017-08-12T08:21:04.058Z,14.73
2017-08-12T08:21:29.491Z,14.79
2017-08-12T08:21:55.026Z,14.72
2017-08-12T08:22:20.518Z,14.78
2017-08-12T08:22:46.021Z,14.66
2017-08-12T08:23:11.486Z,14.79
2017-08-12T08:23:36.921Z,14.77
2017-08-12T08:24:02.385Z,14.69
2017-08-12T08:24:27.890Z,14.7
2017-08-12T08:24:53.413Z,14.72
2017-08-12T08:25:18.891Z,14.73
2017-08-12T08:25:44.344Z,14.73
2017-08-12T08:26:09.851Z,14.68
2017-08-12T08:26:35.294Z,14.68
2017-08-12T08:27:00.820Z,14.82
2017-08-12T08:27:26.270Z,14.82
2017-08-12T08:27:51.772Z,14.82
2017-08-12T08:28:17.269Z,14.77
2017-08-12T08:28:42.691Z,14.73
2017-08-12T08:29:08.174Z,14.82
2017-08-12T08:29:33.614Z,14.79
2017-08-12T08:29:59.053Z,14.77
2017-08-12T08:30:24.532Z,14.77
2017-08-12T08:30:49.990Z,14.86
2017-08-12T08:31:15.461Z,14.85
2017-08-12T08:31:40.956Z,14.84
2017-08-12T08:32:06.446Z,14.79
2017-08-12T08:32:31.941Z,14.82
2017-08-12T08:32:57.421Z,14.82
2017-08-12T08:33:22.963Z,14.89
2017-08-12T08:33:48.469Z,14.81
2017-08-12T08:34:13.926Z,14.85
2017-08-12T08:34:39.420Z,14.88
2017-08-12T08:35:04.952Z,14.82
2017-08-12T08:35:30.416Z,14.85
2017-08-12T08:35:55.907Z,14.77
2017-08-12T08:36:21.351Z,14.85
2017-08-12T08:36:46.814Z,14.91
2017-08-12T08:37:12.313Z,14.86
2017-08-12T08:37:37.824Z,14.86
2017-08-12T08:38:03.330Z,14.86
2017-08-12T08:38:28.735Z,14.91
2017-08-12T08:38:54.225Z,14.97
2017-08-12T08:39:19.690Z,14.99
2017-08-12T08:39:45.155Z,15.04
2017-08-12T08:40:10.607Z,15.03
2017-08-12T08:40:36.098Z,15.03
2017-08-12T08:41:01.538Z,15.09
2017-08-12T08:41:27.011Z,15.1
2017-08-12T08:41:52.450Z,15.07
2017-08-12T08:42:17.968Z,15.18
2017-08-12T08:42:43.446Z,15.21
2017-08-12T08:43:08.914Z,15.22
2017-08-12T08:43:34.457Z,15.17
2017-08-12T08:43:59.885Z,15.17
2017-08-12T08:44:25.355Z,15.24
2017-08-12T08:44:50.855Z,15.19
2017-08-12T08:45:16.404Z,15.21
2017-08-12T08:45:41.836Z,15.35
2017-08-12T08:46:07.287Z,15.29
2017-08-12T08:46:32.770Z,15.31
2017-08-12T08:46:58.238Z,15.47
2017-08-12T08:47:23.760Z,15.31
2017-08-12T08:47:49.255Z,15.44
2017-08-12T08:48:14.754Z,15.42
2017-08-12T08:48:40.231Z,15.36
2017-08-12T08:49:05.671Z,15.43
2017-08-12T08:49:31.131Z,15.4
2017-08-12T08:49:56.606Z,15.37
2017-08-12T08:50:22.105Z,15.43
2017-08-12T08:50:47.599Z,15.4
2017-08-12T08:51:13.038Z,15.46
2017-08-12T08:51:38.529Z,15.42
2017-08-12T08:52:03.987Z,15.37
2017-08-12T08:52:29.490Z,15.4
2017-08-12T08:52:55.006Z,15.44
2017-08-12T08:53:20.466Z,15.46
2017-08-12T08:53:45.952Z,15.47
2017-08-12T08:54:11.448Z,15.44
2017-08-12T08:54:36.958Z,15.4
2017-08-12T08:55:02.451Z,15.46
2017-08-12T08:55:27.939Z,15.43
2017-08-12T08:55:53.455Z,15.44
2017-08-12T08:56:18.899Z,15.51
2017-08-12T08:56:44.364Z,15.46
2017-08-12T08:57:09.934Z,15.54
2017-08-12T08:57:35.391Z,15.52
2017-08-12T08:58:00.886Z,15.52
2017-08-12T08:58:26.383Z,15.52
2017-08-12T08:58:51.802Z,15.58
2017-08-12T08:59:17.312Z,15.47
2017-08-12T08:59:42.821Z,15.49
2017-08-12T09:00:08.349Z,15.57
2017-08-12T09:00:33.906Z,15.54
2017-08-12T09:00:59.437Z,15.58
2017-08-12T09:01:24.848Z,15.57
2017-08-12T09:01:50.338Z,15.52
2017-08-12T09:02:15.888Z,15.57
2017-08-12T09:02:41.474Z,15.58
2017-08-12T09:03:06.938Z,15.61
2017-08-12T09:03:32.452Z,15.61
2017-08-12T09:03:58.022Z,15.65
2017-08-12T09:04:23.499Z,15.7
2017-08-12T09:04:49.041Z,15.76
2017-08-12T09:05:14.499Z,15.72
2017-08-12T09:05:40.027Z,15.72
2017-08-12T09:06:05.542Z,15.67
2017-08-12T09:06:31.043Z,15.83
2017-08-12T09:06:56.508Z,15.83
2017-08-12T09:07:21.999Z,15.8
2017-08-12T09:07:47.442Z,15.8
2017-08-12T09:08:12.901Z,15.7
2017-08-12T09:08:38.377Z,15.72
2017-08-12T09:09:04.056Z,15.72
2017-08-12T09:09:29.559Z,15.77
2017-08-12T09:09:55.145Z,15.8
2017-08-12T09:10:20.622Z,15.75
2017-08-12T09:10:46.152Z,15.73
2017-08-12T09:11:11.711Z,15.76
2017-08-12T09:11:37.142Z,15.77
2017-08-12T09:12:02.576Z,15.7
2017-08-12T09:12:28.017Z,15.73
2017-08-12T09:12:53.549Z,15.79
2017-08-12T09:13:19.098Z,15.73
2017-08-12T09:13:44.678Z,15.7
2017-08-12T09:14:10.106Z,15.73
2017-08-12T09:14:35.604Z,15.67
2017-08-12T09:15:01.084Z,15.67
2017-08-12T09:15:26.727Z,15.68
2017-08-12T09:15:52.100Z,15.65
2017-08-12T09:16:17.621Z,15.68
2017-08-12T09:16:43.275Z,15.59
2017-08-12T09:17:08.919Z,15.61
2017-08-12T09:17:34.350Z,15.58
2017-08-12T09:17:59.852Z,15.55
2017-08-12T09:18:25.392Z,15.59
2017-08-12T09:18:50.902Z,15.64
2017-08-12T09:19:16.584Z,15.64
2017-08-12T09:19:41.985Z,15.61
2017-08-12T09:20:07.448Z,15.59
2017-08-12T09:20:32.862Z,15.61
2017-08-12T09:20:58.350Z,15.61
2017-08-12T09:21:23.929Z,15.65
2017-08-12T09:21:49.359Z,15.62
2017-08-12T09:22:14.809Z,15.61
2017-08-12T09:22:40.304Z,15.55
2017-08-12T09:23:05.819Z,15.61
2017-08-12T09:23:31.279Z,15.61
2017-08-12T09:23:56.745Z,15.64
2017-08-12T09:24:22.236Z,15.62
2017-08-12T09:24:47.773Z,15.58
2017-08-12T09:25:13.315Z,15.62
2017-08-12T09:25:38.906Z,15.62
2017-08-12T09:26:04.415Z,15.62
2017-08-12T09:26:29.925Z,15.65
2017-08-12T09:26:55.371Z,15.59
2017-08-12T09:27:20.828Z,15.67
2017-08-12T09:27:46.337Z,15.62
2017-08-12T09:28:11.818Z,15.54
2017-08-12T09:28:37.311Z,15.68
2017-08-12T09:29:02.796Z,15.62
2017-08-12T09:29:28.252Z,15.57
2017-08-12T09:29:53.725Z,15.64
2017-08-12T09:30:19.210Z,15.67
2017-08-12T09:30:44.725Z,15.64
2017-08-12T09:31:10.177Z,15.73
2017-08-12T09:31:35.611Z,15.73
2017-08-12T09:32:01.107Z,15.67
2017-08-12T09:32:26.570Z,15.7
2017-08-12T09:32:52.050Z,15.76
2017-08-12T09:33:17.574Z,15.65
2017-08-12T09:33:43.034Z,15.72
2017-08-12T09:34:08.500Z,15.62
2017-08-12T09:35:07.996Z,15.64
2017-08-12T09:35:33.494Z,15.82
2017-08-12T09:35:58.961Z,15.72
2017-08-12T09:36:24.455Z,15.7
2017-08-12T09:36:49.918Z,15.72
2017-08-12T09:37:15.386Z,15.59
2017-08-12T09:37:40.849Z,15.64
2017-08-12T09:38:06.438Z,15.57
2017-08-12T09:38:32.024Z,15.58
2017-08-12T09:38:57.511Z,15.64
2017-08-12T09:39:22.989Z,15.61
2017-08-12T09:39:48.457Z,15.55
2017-08-12T09:40:13.915Z,15.62
2017-08-12T09:40:39.407Z,15.61
2017-08-12T09:41:04.856Z,15.65
2017-08-12T09:41:30.377Z,15.61
2017-08-12T09:42:18.740Z,15.59
2017-08-12T09:42:44.181Z,15.58
2017-08-12T09:43:09.651Z,15.61
2017-08-12T09:43:35.135Z,15.59
2017-08-12T09:44:00.645Z,15.58
2017-08-12T09:44:26.060Z,15.64
2017-08-12T09:44:51.564Z,15.64
2017-08-12T09:45:17.040Z,15.62
2017-08-12T09:45:42.470Z,15.64
2017-08-12T09:46:08.010Z,15.64
2017-08-12T09:46:33.527Z,15.62
2017-08-12T09:46:58.975Z,15.61
2017-08-12T09:47:24.492Z,15.64
2017-08-12T09:47:49.940Z,15.59
2017-08-12T09:48:15.422Z,15.59
2017-08-12T09:48:40.913Z,15.64
2017-08-12T09:49:06.323Z,15.62
2017-08-12T09:49:31.809Z,15.61
2017-08-12T09:49:57.266Z,15.59
2017-08-12T09:50:22.787Z,15.59
2017-08-12T09:50:48.241Z,15.58
2017-08-12T09:51:13.721Z,15.55
2017-08-12T09:51:39.175Z,15.54
2017-08-12T09:52:04.909Z,15.49
2017-08-12T09:52:30.141Z,15.46
2017-08-12T09:52:55.642Z,15.57
2017-08-12T09:53:21.168Z,15.59
2017-08-12T09:53:46.691Z,15.7
2017-08-12T09:54:12.263Z,15.61
2017-08-12T09:54:37.769Z,15.62
2017-08-12T09:55:03.252Z,15.58
2017-08-12T09:55:28.761Z,15.46
2017-08-12T09:55:54.197Z,15.58
2017-08-12T09:56:19.697Z,15.59
2017-08-12T09:56:45.171Z,15.58
2017-08-12T09:57:10.668Z,15.51
2017-08-12T09:57:36.153Z,15.54
2017-08-12T09:58:01.662Z,15.59
2017-08-12T09:58:27.145Z,15.62
2017-08-12T09:58:52.637Z,15.52
2017-08-12T09:59:18.119Z,15.64
2017-08-12T09:59:43.638Z,15.61
2017-08-12T10:00:09.134Z,15.55
2017-08-12T10:00:34.600Z,15.57
2017-08-12T10:01:00.112Z,15.52
2017-08-12T10:01:25.626Z,15.54
2017-08-12T10:01:51.121Z,15.51
2017-08-12T10:02:16.636Z,15.47
2017-08-12T10:02:42.143Z,15.49
2017-08-12T10:03:07.628Z,15.51
2017-08-12T10:03:33.122Z,15.42
2017-08-12T10:03:58.539Z,15.42
2017-08-12T10:04:24.059Z,15.52
2017-08-12T10:04:49.585Z,15.52
2017-08-12T10:05:15.111Z,15.46
2017-08-12T10:05:40.585Z,15.47
2017-08-12T10:06:06.086Z,15.54
2017-08-12T10:06:31.572Z,15.51
2017-08-12T10:06:57.066Z,15.51
2017-08-12T10:07:22.618Z,15.52
2017-08-12T10:07:48.020Z,15.61
2017-08-12T10:08:13.517Z,15.49
2017-08-12T10:08:39.021Z,15.49
2017-08-12T10:09:04.483Z,15.52
2017-08-12T10:09:29.976Z,15.49
2017-08-12T10:09:55.497Z,15.54
2017-08-12T10:10:20.949Z,15.58
2017-08-12T10:10:46.483Z,15.57
2017-08-12T10:11:11.972Z,15.59
2017-08-12T10:11:37.456Z,15.58
2017-08-12T10:12:02.951Z,15.55
2017-08-12T10:12:28.459Z,15.64
2017-08-12T10:12:53.971Z,15.59
2017-08-12T10:13:19.445Z,15.52
2017-08-12T10:13:44.962Z,15.58
2017-08-12T10:14:10.454Z,15.46
2017-08-12T10:14:35.877Z,15.55
2017-08-12T10:15:01.371Z,15.44
2017-08-12T10:15:26.858Z,15.59
2017-08-12T10:15:52.343Z,15.59
2017-08-12T10:16:17.800Z,15.57
2017-08-12T10:16:43.279Z,15.57
2017-08-12T10:17:08.768Z,15.58
2017-08-12T10:17:34.250Z,15.64
2017-08-12T10:17:59.717Z,15.57
2017-08-12T10:18:25.239Z,15.61
2017-08-12T10:18:50.740Z,15.61
2017-08-12T10:19:16.188Z,15.64
2017-08-12T10:19:41.663Z,15.61
2017-08-12T10:20:07.146Z,15.55
2017-08-12T10:20:32.657Z,15.57
2017-08-12T10:20:58.132Z,15.59
2017-08-12T10:21:23.605Z,15.59
2017-08-12T10:21:49.110Z,15.67
2017-08-12T10:22:14.621Z,15.7
2017-08-12T10:22:40.082Z,15.72
2017-08-12T10:23:05.560Z,15.67
2017-08-12T10:23:31.003Z,15.68
2017-08-12T10:23:56.522Z,15.65
2017-08-12T10:24:21.964Z,15.7
2017-08-12T10:24:47.468Z,15.68
2017-08-12T10:25:12.994Z,15.77
2017-08-12T10:25:38.499Z,15.67
2017-08-12T10:26:03.993Z,15.61
2017-08-12T10:26:29.485Z,15.65
2017-08-12T10:26:54.969Z,15.73
2017-08-12T10:27:20.438Z,15.7
2017-08-12T10:27:45.948Z,15.76
2017-08-12T10:28:11.394Z,15.67
2017-08-12T10:28:36.875Z,15.77
2017-08-12T10:29:02.381Z,15.79
2017-08-12T10:29:27.869Z,15.73
2017-08-12T10:29:53.349Z,15.73
2017-08-12T10:30:18.850Z,15.76
2017-08-12T10:30:44.301Z,15.72
2017-08-12T10:31:09.759Z,15.75
2017-08-12T10:31:35.265Z,15.75
2017-08-12T10:32:00.703Z,15.83
2017-08-12T10:32:26.187Z,15.75
2017-08-12T10:32:51.678Z,15.77
2017-08-12T10:33:17.147Z,15.79
2017-08-12T10:33:42.628Z,15.9
2017-08-12T10:34:08.119Z,15.91
2017-08-12T10:34:33.622Z,15.83
2017-08-12T10:34:59.121Z,15.83
2017-08-12T10:35:24.764Z,15.84
2017-08-12T10:35:50.221Z,15.83
2017-08-12T10:36:15.639Z,15.82
2017-08-12T10:36:41.124Z,15.88
2017-08-12T10:37:06.624Z,15.95
2017-08-12T10:37:32.093Z,15.84
2017-08-12T10:37:57.604Z,15.95
2017-08-12T10:38:23.091Z,15.95
2017-08-12T10:38:48.550Z,15.95
2017-08-12T10:39:14.018Z,15.92
2017-08-12T10:39:39.512Z,15.94
2017-08-12T10:40:04.989Z,15.88
2017-08-12T10:40:30.437Z,15.82
2017-08-12T10:40:55.898Z,15.86
2017-08-12T10:41:21.396Z,15.88
2017-08-12T10:41:46.896Z,15.82
2017-08-12T10:42:12.407Z,15.86
2017-08-12T10:42:37.890Z,15.95
2017-08-12T10:43:03.351Z,15.82
2017-08-12T10:43:28.801Z,15.91
2017-08-12T10:43:54.287Z,15.88
2017-08-12T10:44:19.767Z,15.95
2017-08-12T10:44:45.260Z,15.84
2017-08-12T10:45:10.757Z,15.84
2017-08-12T10:45:36.207Z,15.94
2017-08-12T10:46:01.680Z,15.98
2017-08-12T10:46:27.137Z,15.84
2017-08-12T10:46:52.670Z,15.86
2017-08-12T10:47:18.097Z,15.84
2017-08-12T10:47:43.646Z,15.84
2017-08-12T10:48:09.143Z,15.82
2017-08-12T10:48:34.606Z,15.92
2017-08-12T10:49:00.087Z,15.92
2017-08-12T10:49:25.524Z,15.95
2017-08-12T10:49:51.010Z,15.84
2017-08-12T10:50:23.210Z,15.8
2017-08-12T10:50:48.714Z,15.92
2017-08-12T10:51:14.223Z,15.91
2017-08-12T10:51:39.639Z,15.98
2017-08-12T10:52:06.894Z,15.9
2017-08-12T10:52:32.454Z,16
2017-08-12T10:52:57.902Z,15.94
2017-08-12T10:53:23.402Z,15.86
2017-08-12T10:53:48.853Z,15.9
2017-08-12T10:54:14.412Z,15.92
2017-08-12T10:54:39.931Z,15.88
2017-08-12T10:55:05.511Z,15.83
2017-08-12T10:55:31.034Z,15.9
2017-08-12T10:55:56.555Z,15.88
2017-08-12T10:56:22.068Z,15.86
2017-08-12T10:56:48.189Z,15.86
2017-08-12T10:57:13.675Z,15.84
2017-08-12T10:57:39.170Z,15.98
2017-08-12T10:58:04.685Z,15.86
2017-08-12T10:58:30.075Z,15.98
2017-08-12T10:58:55.503Z,15.9
2017-08-12T10:59:21.085Z,15.86
2017-08-12T10:59:46.534Z,15.86
2017-08-12T11:00:11.918Z,15.9
2017-08-12T11:00:37.480Z,15.94
2017-08-12T11:01:02.875Z,15.94
2017-08-12T11:01:28.388Z,15.95
2017-08-12T11:01:53.871Z,15.88
2017-08-12T11:02:19.357Z,15.84
2017-08-12T11:02:44.844Z,15.91
2017-08-12T11:03:10.286Z,15.95
2017-08-12T11:03:35.740Z,15.86
2017-08-12T11:04:01.210Z,15.84
2017-08-12T11:04:26.684Z,15.98
2017-08-12T11:04:52.223Z,15.88
2017-08-12T11:05:17.630Z,15.82
2017-08-12T11:05:43.223Z,15.94